West End, Texas
Current Conditions -  °F | °C
As of 11:35 PM on Monday 26 Jan 2015 (Local Time) from KARM Reporting Station
Clear Clear  
Wind Chill: 51°   Ceiling: Unl
Heat Index: 51°   Visibility: 10mi
Dew Point: 47°   Wind: 8mph
Humidity: 86%   Direction: 230°SW
Pressure: 30.19"   Gusts: NA
Location:  29.1916°N, 96.2212°W
Report Text: KARM 270535Z AUTO 23007KT 10SM CLR 11/09 A3019 RMK AO2 T01070085
Loading
Personal Weather Stations






























Interactive Weather Map New forecast layout! Learn more

10-Day Weather Forecast

Advertisements
Track Severe Weather on mobile